createdAt,value
2022-10-09T00:03:00.478Z,1.92
2022-10-09T00:08:03.558Z,2.20
2022-10-09T00:13:06.545Z,1.98
2022-10-09T00:18:09.188Z,1.98
2022-10-09T00:23:17.315Z,1.75
2022-10-09T00:28:20.581Z,2.40
2022-10-09T00:33:26.235Z,1.80
2022-10-09T00:38:32.530Z,1.67
2022-10-09T00:43:51.551Z,2.03
2022-10-09T00:49:08.814Z,2.00
2022-10-09T00:54:13.400Z,2.72
2022-10-09T00:59:16.312Z,2.53
2022-10-09T01:04:17.932Z,2.67
2022-10-09T01:09:51.056Z,2.30
2022-10-09T01:15:10.376Z,2.72
2022-10-09T01:20:31.564Z,2.85
2022-10-09T01:25:44.710Z,2.30
2022-10-09T01:30:47.001Z,2.35
2022-10-09T01:35:49.675Z,2.50
2022-10-09T01:40:53.528Z,2.25
2022-10-09T01:46:19.586Z,2.40
2022-10-09T01:51:27.552Z,2.30
2022-10-09T01:56:34.647Z,1.85
2022-10-09T02:01:39.450Z,2.03
2022-10-09T02:06:42.612Z,2.20
2022-10-09T02:11:48.854Z,2.28
2022-10-09T02:17:00.109Z,1.90
2022-10-09T02:22:11.140Z,2.05
2022-10-09T02:27:13.846Z,2.00
2022-10-09T02:32:16.530Z,1.98
2022-10-09T02:37:18.579Z,1.90
2022-10-09T02:42:20.253Z,1.80
2022-10-09T02:47:21.919Z,1.90
2022-10-09T02:52:23.520Z,2.17
2022-10-09T02:57:25.222Z,1.80
2022-10-09T03:02:26.953Z,2.10
2022-10-09T03:07:28.630Z,2.30
2022-10-09T03:12:30.223Z,1.70
2022-10-09T03:17:31.830Z,2.30
2022-10-09T03:22:33.726Z,2.08
2022-10-09T03:27:35.461Z,2.17
2022-10-09T03:32:37.139Z,2.17
2022-10-09T03:37:38.778Z,1.73
2022-10-09T03:42:40.386Z,1.88
2022-10-09T03:47:42.004Z,1.85
2022-10-09T03:52:43.581Z,2.80
2022-10-09T03:57:45.186Z,2.20
2022-10-09T04:02:47.204Z,2.35
2022-10-09T04:07:49.385Z,2.10
2022-10-09T04:12:51.420Z,2.53
2022-10-09T04:17:53.263Z,2.30
2022-10-09T04:22:54.878Z,2.03
2022-10-09T04:27:56.470Z,2.70
2022-10-09T04:32:58.152Z,2.17
2022-10-09T04:37:59.777Z,2.50
2022-10-09T04:43:01.387Z,2.35
2022-10-09T04:48:02.988Z,2.97
2022-10-09T04:53:04.628Z,2.63
2022-10-09T04:58:07.038Z,2.47
2022-10-09T05:03:09.202Z,2.50
2022-10-09T05:08:10.804Z,2.17
2022-10-09T05:13:12.388Z,2.55
2022-10-09T05:18:13.986Z,2.35
2022-10-09T05:23:15.669Z,2.40
2022-10-09T05:28:17.524Z,2.38
2022-10-09T05:33:19.282Z,2.65
2022-10-09T05:38:22.181Z,2.47
2022-10-09T05:43:26.219Z,2.60
2022-10-09T05:48:27.853Z,2.53
2022-10-09T05:53:29.520Z,1.95
2022-10-09T05:58:31.114Z,2.30
2022-10-09T06:03:32.735Z,2.53
2022-10-09T06:08:36.230Z,2.40
2022-10-09T06:13:37.859Z,2.42
2022-10-09T06:18:48.700Z,2.25
2022-10-09T06:23:52.373Z,2.55
2022-10-09T06:28:53.957Z,2.95
2022-10-09T06:33:58.019Z,2.67
2022-10-09T06:39:01.029Z,2.40
2022-10-09T06:44:04.803Z,2.58
2022-10-09T06:49:08.642Z,2.75
2022-10-09T06:54:13.492Z,2.80
2022-10-09T06:59:15.097Z,2.53
2022-10-09T07:04:18.134Z,2.72
2022-10-09T07:09:19.788Z,2.75
2022-10-09T07:14:21.398Z,3.20
2022-10-09T07:19:23.023Z,2.63
2022-10-09T07:24:25.354Z,3.03
2022-10-09T07:29:26.984Z,3.33
2022-10-09T07:34:28.609Z,2.95
2022-10-09T07:39:30.215Z,3.10
2022-10-09T07:44:31.918Z,2.95
2022-10-09T07:49:33.570Z,2.90
2022-10-09T07:54:35.153Z,3.30
2022-10-09T07:59:36.772Z,2.72
2022-10-09T08:04:38.373Z,2.80
2022-10-09T08:09:40.474Z,2.55
2022-10-09T08:14:42.183Z,2.30
2022-10-09T08:19:43.814Z,2.58
2022-10-09T08:24:46.389Z,2.30
2022-10-09T08:29:48.180Z,2.28
2022-10-09T08:34:49.848Z,2.53
2022-10-09T08:39:51.461Z,2.47
2022-10-09T08:44:53.398Z,2.55
2022-10-09T08:50:08.813Z,2.90
2022-10-09T08:55:20.794Z,2.53
2022-10-09T09:00:25.989Z,3.05
2022-10-09T09:05:40.462Z,2.60
2022-10-09T09:10:56.509Z,3.00
2022-10-09T09:16:23.063Z,2.92
2022-10-09T09:21:41.559Z,2.83
2022-10-09T09:26:47.018Z,2.75
2022-10-09T09:31:57.053Z,2.72
2022-10-09T09:36:59.008Z,2.90
2022-10-09T09:42:09.629Z,2.67
2022-10-09T09:47:26.089Z,2.95
2022-10-09T09:52:31.654Z,2.47
2022-10-09T09:57:37.198Z,2.33
2022-10-09T10:02:38.801Z,2.08
2022-10-09T10:07:40.668Z,2.10
2022-10-09T10:12:52.402Z,1.63
2022-10-09T10:18:03.232Z,1.70
2022-10-09T10:23:04.863Z,1.80
2022-10-09T10:28:15.206Z,1.77
2022-10-09T10:33:24.583Z,1.70
2022-10-09T10:38:48.669Z,1.55
2022-10-09T10:44:09.357Z,1.40
2022-10-09T10:49:21.018Z,1.23
2022-10-09T10:54:41.367Z,1.17
2022-10-09T10:59:54.731Z,1.50
2022-10-09T11:05:28.991Z,1.30
2022-10-09T11:10:43.464Z,1.23
2022-10-09T11:16:11.647Z,1.23
2022-10-09T11:21:13.231Z,1.30
2022-10-09T11:26:40.488Z,1.15
2022-10-09T11:31:50.252Z,1.15
2022-10-09T11:36:53.201Z,1.17
2022-10-09T11:41:55.643Z,1.00
2022-10-09T11:47:09.702Z,1.00
2022-10-09T11:52:17.062Z,1.00
2022-10-09T11:57:28.350Z,0.90
2022-10-09T12:02:31.905Z,1.10
2022-10-09T12:07:35.631Z,0.80
2022-10-09T12:12:42.894Z,0.80
2022-10-09T12:17:52.007Z,0.80
2022-10-09T12:23:21.706Z,1.27
2022-10-09T12:28:35.081Z,0.93
2022-10-09T12:33:42.817Z,0.60
2022-10-09T12:38:47.133Z,0.85
2022-10-09T12:43:50.976Z,0.70
2022-10-09T12:48:53.511Z,0.63
2022-10-09T12:53:55.496Z,1.00
2022-10-09T12:58:58.459Z,0.80
2022-10-09T13:04:04.117Z,0.70
2022-10-09T13:09:08.249Z,0.98
2022-10-09T13:14:33.128Z,0.70
2022-10-09T13:19:35.691Z,0.57
2022-10-09T13:24:37.416Z,0.50
2022-10-09T13:29:39.275Z,0.80
2022-10-09T13:34:41.925Z,0.55
2022-10-09T13:39:43.735Z,0.65
2022-10-09T13:44:45.431Z,0.60
2022-10-09T13:49:47.040Z,0.80
2022-10-09T13:54:48.675Z,1.25
2022-10-09T13:59:50.715Z,0.70
2022-10-09T14:04:52.742Z,0.73
2022-10-09T14:09:54.336Z,0.73
2022-10-09T14:14:56.023Z,0.65
2022-10-09T14:19:57.844Z,0.98
2022-10-09T14:24:59.474Z,0.70
2022-10-09T14:30:01.193Z,0.80
2022-10-09T14:35:03.037Z,0.90
2022-10-09T14:40:05.094Z,1.38
2022-10-09T14:45:07.596Z,0.93
2022-10-09T14:50:09.693Z,0.90
2022-10-09T14:55:11.450Z,1.20
2022-10-09T15:00:13.670Z,1.73
2022-10-09T15:05:15.462Z,1.10
2022-10-09T15:10:17.245Z,1.25
2022-10-09T15:15:18.854Z,2.15
2022-10-09T15:20:20.441Z,1.38
2022-10-09T15:25:22.500Z,1.38
2022-10-09T15:30:24.158Z,1.45
2022-10-09T15:35:25.909Z,0.80
2022-10-09T15:40:28.185Z,0.90
2022-10-09T15:45:29.892Z,0.82
2022-10-09T15:50:35.196Z,0.93
2022-10-09T15:55:37.983Z,0.80
2022-10-09T16:00:41.574Z,1.15
2022-10-09T16:05:49.509Z,1.35
2022-10-09T16:10:55.407Z,1.00
2022-10-09T16:15:57.102Z,1.42
2022-10-09T16:21:07.929Z,1.73
2022-10-09T16:26:10.178Z,1.52
2022-10-09T16:31:34.775Z,2.33
2022-10-09T16:36:36.443Z,2.85
2022-10-09T16:41:41.842Z,2.80
2022-10-09T16:46:43.881Z,2.17
2022-10-09T16:51:45.579Z,2.50
2022-10-09T16:56:47.270Z,1.48
2022-10-09T17:01:49.509Z,1.75
2022-10-09T17:06:52.269Z,1.65
2022-10-09T17:11:53.880Z,2.80
2022-10-09T17:16:55.588Z,2.38
2022-10-09T17:21:57.215Z,2.75
2022-10-09T17:26:59.116Z,6.05
2022-10-09T17:32:00.816Z,3.65
2022-10-09T17:37:02.456Z,2.83
2022-10-09T17:42:04.193Z,4.88
2022-10-09T17:47:06.134Z,6.07
2022-10-09T17:52:07.767Z,4.55
2022-10-09T17:57:12.366Z,3.17
2022-10-09T18:02:15.193Z,2.13
2022-10-09T18:07:19.369Z,4.22
2022-10-09T18:12:20.972Z,3.10
2022-10-09T18:17:23.315Z,1.90
2022-10-09T18:22:25.003Z,1.52
2022-10-09T18:27:28.838Z,1.92
2022-10-09T18:32:30.886Z,1.40
2022-10-09T18:37:33.381Z,1.27
2022-10-09T18:42:35.692Z,0.90
2022-10-09T18:47:37.510Z,1.40
2022-10-09T18:52:41.481Z,1.42
2022-10-09T18:57:43.774Z,1.50
2022-10-09T19:02:45.440Z,1.20
2022-10-09T19:07:47.260Z,1.20
2022-10-09T19:12:50.053Z,0.70
2022-10-09T19:17:52.031Z,0.80
2022-10-09T19:22:53.761Z,1.10
2022-10-09T19:27:55.638Z,1.00
2022-10-09T19:32:57.312Z,0.70
2022-10-09T19:37:59.104Z,1.15
2022-10-09T19:43:00.822Z,0.80
2022-10-09T19:48:03.085Z,1.13
2022-10-09T19:53:06.417Z,1.13
2022-10-09T19:58:08.579Z,0.95
2022-10-09T20:03:10.317Z,1.10
2022-10-09T20:08:12.009Z,0.90
2022-10-09T20:13:14.161Z,0.95
2022-10-09T20:18:15.808Z,0.60
2022-10-09T20:23:17.762Z,0.93
2022-10-09T20:28:19.472Z,1.08
2022-10-09T20:33:21.360Z,1.63
2022-10-09T20:38:25.747Z,0.93
2022-10-09T20:43:27.887Z,1.10
2022-10-09T20:48:29.522Z,0.90
2022-10-09T20:53:31.421Z,0.90
2022-10-09T20:58:34.515Z,0.90
2022-10-09T21:03:38.470Z,1.10
2022-10-09T21:08:40.863Z,1.08
2022-10-09T21:13:42.919Z,0.90
2022-10-09T21:18:44.751Z,0.95
2022-10-09T21:23:50.867Z,1.10
2022-10-09T21:28:58.245Z,1.20
2022-10-09T21:34:01.699Z,1.00
2022-10-09T21:39:05.338Z,0.95
2022-10-09T21:44:07.766Z,0.75
2022-10-09T21:49:30.077Z,1.20
2022-10-09T21:54:31.813Z,1.23
2022-10-09T21:59:33.520Z,1.05
2022-10-09T22:04:35.274Z,0.98
2022-10-09T22:09:37.238Z,1.02
2022-10-09T22:14:39.261Z,0.75
2022-10-09T22:19:41.258Z,1.02
2022-10-09T22:24:43.320Z,0.80
2022-10-09T22:29:45.372Z,0.80
2022-10-09T22:34:49.603Z,0.90
2022-10-09T22:39:51.304Z,0.90
2022-10-09T22:44:52.988Z,0.95
2022-10-09T22:49:54.741Z,0.75
2022-10-09T22:54:56.479Z,1.02
2022-10-09T22:59:58.106Z,1.40
2022-10-09T23:04:59.808Z,1.08
2022-10-09T23:10:01.459Z,0.95
2022-10-09T23:15:03.292Z,1.05
2022-10-09T23:20:05.559Z,0.80
2022-10-09T23:25:07.684Z,1.20
2022-10-09T23:30:09.983Z,1.05
2022-10-09T23:35:11.624Z,1.00
2022-10-09T23:40:13.385Z,1.20
2022-10-09T23:45:15.238Z,1.30
2022-10-09T23:50:16.942Z,1.40
2022-10-09T23:55:18.585Z,0.90
